Impacts TAF Board INFO
FOR SITUATIONAL AWARENESS. NOT TO BE USED FOR FLIGHT PLANNING PURPOSES.
IDs:

KPHX - Phoenix/Sky Harbor, AZ, US

Issued at 1122 UTC 26 Mar 2017
Updated at 1459 UTC 26 Mar 2017
Potential Impact None Slight Moderate High
Time1451Z 26/15Z 26/16Z 26/17Z 26/18Z 26/19Z 26/20Z 26/21Z 26/22Z 26/23Z 27/00Z 27/01Z 27/02Z 27/03Z
Type OBS PRVL
  [TEMP]  
PRVL PRVL PRVL PRVL PRVL PRVL PRVL PRVL PRVL PRVL PRVL PRVL
VIS 10 >6 >6 >6 >6 >6 >6 >6 >6 >6 >6 >6 >6 >6
CIG 250 --
  [--]  
-- -- -- -- -- -- -- -- -- -- -- --
Cover BKN SCT
  [SCT]  
SCT SCT SCT SCT SCT SCT SCT SCT SCT SCT SCT SCT
FltCat VFR VFR
  [VFR]  
VFR VFR VFR VFR VFR VFR VFR VFR VFR VFR VFR VFR
WX -- --
  [--]  
-- -- -- -- -- -- -- -- -- -- -- --
WDir 110 VRB
[120]
VRB VRB VRB VRB 260 260 260 260 260 260 260 260
WSpd 4 4
  [5]  
4 4 4 4 8 8 8 8 8 8 8 8
WGst -- --
  [--]  
-- -- -- -- -- -- -- -- -- -- -- --

Raw TAF
KPHX 261122Z 2612/2712 VRB04KT P6SM SCT250
  TEMPO 2613/2616 12005KT
  FM262000 26008KT P6SM FEW110 SCT250
  FM270400 VRB04KT P6SM SCT250
  FM270700 10007KT P6SM SCT180


Raw METAR
KPHX 261451Z 11004KT 10SM BKN250 17/02 A2993 RMK AO2 SLP123 T01670022 51019
KPHX 261351Z 10004KT 10SM BKN250 14/02 A2992 RMK AO2 SLP121 T01390022
KPHX 261251Z 00000KT 10SM BKN250 14/02 A2990 RMK AO2 SLP112 T01390017
KPHX 261151Z 27006KT 10SM CLR 16/00 A2987 RMK AO2 SLP103 T01610000 10189 20144 55000

METAR Board
Radar Display
Forecast Discussion

FOR SITUATIONAL AWARENESS. NOT TO BE USED FOR FLIGHT PLANNING PURPOSES.

Page loaded:  14:59 UTC  |   07:59 AM Pacific  |   08:59 AM Mountain  |   09:59 AM Central  |   10:59 AM Eastern

 

ADVISORIES

FORECASTS

FORECASTS

OBSERVATIONS

USER TOOLS

ABOUT US